Time;durP1;ratioP1;P1;durP2;ratioP2;P2;SDS_P1;SDS_P2;PMS_P1;PMS_P2;Temp;Humidity;BMP_temperature;BMP_pressure;BME280_temperature;BME280_humidity;BME280_pressure;Samples;Min_cycle;Max_cycle;Signal;HPM_P1;HPM_P2
2022/01/27 00:01:29;;;;;;;0.10;0.10;;;3.80;99.90;;;;;;5040042;28;20618;-78
2022/01/27 00:04:12;;;;;;;0.10;0.10;;;3.80;99.90;;;;;;5041151;28;20730;-78
2022/01/27 00:06:40;;;;;;;0.10;0.10;;;3.80;99.90;;;;;;5033882;28;20603;-79
2022/01/27 00:09:14;;;;;;;0.10;0.10;;;3.80;99.90;;;;;;5041978;28;20617;-78
2022/01/27 00:11:45;;;;;;;0.10;0.10;;;3.80;99.90;;;;;;5040518;28;20617;-78
2022/01/27 00:14:14;;;;;;;0.10;0.10;;;3.80;99.90;;;;;;5040895;28;20670;-78
2022/01/27 00:16:43;;;;;;;0.10;0.10;;;3.80;99.90;;;;;;5040715;28;20614;-78
2022/01/27 00:19:11;;;;;;;0.10;0.10;;;3.80;99.90;;;;;;5041044;28;20615;-78
2022/01/27 00:21:39;;;;;;;0.10;0.10;;;3.90;99.90;;;;;;5038612;28;20618;-80
2022/01/27 00:24:06;;;;;;;0.10;0.10;;;3.90;99.90;;;;;;5055435;28;20669;-78
2022/01/27 00:26:33;;;;;;;0.10;0.10;;;3.90;99.90;;;;;;5040282;28;20630;-78
2022/01/27 00:29:01;;;;;;;0.10;0.10;;;3.90;99.90;;;;;;5040779;28;20649;-78
2022/01/27 00:31:28;;;;;;;0.10;0.10;;;3.90;99.90;;;;;;5040780;28;20717;-78
2022/01/27 00:33:55;;;;;;;0.10;0.10;;;3.90;99.90;;;;;;5040288;28;21316;-78
2022/01/27 00:36:23;;;;;;;0.10;0.10;;;3.90;99.90;;;;;;5040799;28;20752;-79
2022/01/27 00:38:51;;;;;;;0.10;0.10;;;3.90;99.90;;;;;;5040610;28;20748;-79
2022/01/27 00:41:19;;;;;;;0.10;0.10;;;3.90;99.90;;;;;;5040873;28;21019;-78
2022/01/27 00:43:48;;;;;;;0.10;0.10;;;3.90;99.90;;;;;;5041088;28;20664;-78
2022/01/27 00:46:17;;;;;;;0.10;0.10;;;3.90;99.90;;;;;;5042460;28;20721;-78
2022/01/27 00:48:45;;;;;;;0.10;0.10;;;3.90;99.90;;;;;;5035410;28;20705;-78
2022/01/27 00:51:15;;;;;;;0.10;0.10;;;3.90;99.90;;;;;;5028158;28;20633;-78
2022/01/27 00:53:48;;;;;;;0.10;0.10;;;3.90;99.90;;;;;;5026977;28;20651;-78
2022/01/27 00:56:23;;;;;;;0.10;0.10;;;3.90;99.90;;;;;;5026574;28;20627;-78
2022/01/27 00:58:59;;;;;;;0.10;0.10;;;4.00;99.90;;;;;;5027600;28;20730;-78
2022/01/27 01:01:33;;;;;;;0.10;0.10;;;3.90;99.90;;;;;;5026346;28;20641;-78
2022/01/27 01:04:03;;;;;;;0.10;0.10;;;3.90;99.90;;;;;;5028449;28;20692;-79
2022/01/27 01:06:41;;;;;;;0.20;0.20;;;3.90;99.90;;;;;;5026538;28;20717;-78
2022/01/27 01:14:44;;;;;;;0.00;0.00;;;4.00;99.90;;;;;;5022531;28;20654;-79
2022/01/27 01:17:29;;;;;;;0.10;0.10;;;4.00;99.90;;;;;;5026829;28;20699;-78
2022/01/27 01:20:21;;;;;;;0.10;0.10;;;4.00;99.90;;;;;;5025065;28;20717;-79
2022/01/27 01:31:12;;;;;;;0.10;0.10;;;4.00;99.90;;;;;;5026701;28;20670;-79
2022/01/27 01:33:42;;;;;;;0.20;0.20;;;4.00;99.90;;;;;;5022740;28;20656;-78
2022/01/27 01:36:15;;;;;;;0.10;0.10;;;4.00;99.90;;;;;;5027925;28;20617;-78
2022/01/27 01:38:44;;;;;;;0.10;0.10;;;4.10;99.90;;;;;;5024311;28;20660;-77
2022/01/27 01:41:12;;;;;;;0.13;0.13;;;4.10;99.90;;;;;;5026443;28;20634;-78
2022/01/27 01:43:38;;;;;;;0.10;0.10;;;4.10;99.90;;;;;;5026764;28;20653;-78
2022/01/27 01:46:05;;;;;;;0.10;0.10;;;4.10;99.90;;;;;;5024726;28;20753;-78
2022/01/27 01:48:32;;;;;;;0.10;0.10;;;4.10;99.90;;;;;;5025656;28;20642;-78
2022/01/27 01:51:02;;;;;;;0.10;0.10;;;4.10;99.90;;;;;;5023362;28;20761;-78
2022/01/27 01:53:29;;;;;;;0.10;0.10;;;4.10;99.90;;;;;;5025085;28;20625;-78
2022/01/27 01:55:56;;;;;;;0.10;0.10;;;4.10;99.90;;;;;;5023799;28;20615;-78
2022/01/27 01:58:23;;;;;;;0.10;0.10;;;4.10;99.90;;;;;;5021621;28;20836;-78
2022/01/27 02:00:50;;;;;;;0.10;0.10;;;4.10;99.90;;;;;;5025988;28;20705;-78
2022/01/27 02:03:17;;;;;;;0.10;0.10;;;4.10;99.90;;;;;;5027380;28;20662;-78
2022/01/27 02:05:46;;;;;;;0.10;0.10;;;4.10;99.90;;;;;;5025611;28;20629;-78
2022/01/27 02:08:46;;;;;;;0.10;0.10;;;4.10;99.90;;;;;;5026546;28;20611;-78
2022/01/27 02:19:30;;;;;;;0.10;0.10;;;4.10;99.90;;;;;;5025518;28;20662;-78
2022/01/27 02:22:00;;;;;;;0.10;0.10;;;4.20;99.90;;;;;;5024696;28;20618;-78
2022/01/27 02:24:29;;;;;;;0.10;0.10;;;4.10;99.90;;;;;;5024095;28;20658;-78
2022/01/27 02:26:57;;;;;;;0.10;0.10;;;4.20;99.90;;;;;;5023231;28;20629;-77
2022/01/27 02:29:25;;;;;;;0.00;0.00;;;4.20;99.90;;;;;;5025269;28;20673;-78
2022/01/27 02:31:55;;;;;;;0.10;0.10;;;4.10;99.90;;;;;;5025187;28;20642;-78
2022/01/27 02:34:22;;;;;;;0.10;0.10;;;4.20;99.90;;;;;;5021841;28;20690;-78
2022/01/27 02:36:50;;;;;;;0.10;0.10;;;4.20;99.90;;;;;;5025336;28;20622;-77
2022/01/27 02:39:19;;;;;;;0.10;0.10;;;4.20;99.90;;;;;;5025965;28;20751;-77
2022/01/27 02:41:51;;;;;;;0.10;0.10;;;4.20;99.90;;;;;;5025352;28;20661;-78
2022/01/27 02:44:29;;;;;;;0.10;0.10;;;4.20;99.90;;;;;;5025154;28;20723;-78
2022/01/27 02:46:56;;;;;;;0.10;0.10;;;4.20;99.90;;;;;;5025962;28;20615;-78
2022/01/27 02:49:24;;;;;;;0.10;0.10;;;4.20;99.90;;;;;;5024986;28;20631;-78
2022/01/27 02:51:51;;;;;;;0.10;0.10;;;4.20;99.90;;;;;;5024071;28;20666;-78
2022/01/27 02:54:19;;;;;;;0.10;0.10;;;4.20;99.90;;;;;;5064231;23;20672;-67
2022/01/27 02:56:47;;;;;;;0.10;0.10;;;4.20;99.90;;;;;;5059323;28;20746;-66
2022/01/27 02:59:16;;;;;;;0.10;0.10;;;4.20;99.90;;;;;;5049986;28;20719;-66
2022/01/27 03:01:45;;;;;;;0.10;0.10;;;4.20;99.90;;;;;;5058484;28;20621;-67
2022/01/27 03:04:12;;;;;;;0.10;0.10;;;4.20;99.90;;;;;;5055299;28;20628;-64
2022/01/27 03:06:39;;;;;;;0.10;0.10;;;4.20;99.90;;;;;;5055820;28;20642;-65
2022/01/27 03:09:06;;;;;;;0.10;0.10;;;4.20;99.90;;;;;;5063275;28;20620;-66
2022/01/27 03:11:44;;;;;;;0.10;0.10;;;4.20;99.90;;;;;;5049347;28;20671;-65
2022/01/27 03:14:13;;;;;;;0.10;0.10;;;4.20;99.90;;;;;;5057282;28;20944;-65
2022/01/27 03:16:40;;;;;;;0.10;0.10;;;4.20;99.90;;;;;;5057115;28;20661;-65
2022/01/27 03:19:07;;;;;;;0.10;0.10;;;4.20;99.90;;;;;;5056471;28;20687;-67
2022/01/27 03:21:35;;;;;;;0.10;0.10;;;4.20;99.90;;;;;;5060425;28;20622;-65
2022/01/27 03:24:02;;;;;;;0.10;0.10;;;4.20;99.90;;;;;;5052601;28;20732;-66
2022/01/27 03:26:29;;;;;;;0.10;0.10;;;4.20;99.90;;;;;;5056035;28;20665;-67
2022/01/27 03:28:58;;;;;;;0.10;0.10;;;4.20;99.90;;;;;;5055320;28;20617;-65
2022/01/27 03:31:26;;;;;;;0.10;0.10;;;4.20;99.90;;;;;;5051171;28;20613;-66
2022/01/27 03:33:53;;;;;;;0.10;0.10;;;4.20;99.90;;;;;;5047851;28;20687;-67
2022/01/27 03:36:21;;;;;;;0.10;0.10;;;4.20;99.90;;;;;;5045205;28;20761;-66
2022/01/27 03:38:48;;;;;;;0.20;0.20;;;4.20;99.90;;;;;;5054345;28;20662;-67
2022/01/27 03:41:19;;;;;;;0.10;0.10;;;4.20;99.90;;;;;;5051081;28;20635;-66
2022/01/27 03:43:47;;;;;;;0.10;0.10;;;4.30;99.90;;;;;;5059924;28;20617;-66
2022/01/27 03:46:16;;;;;;;0.10;0.10;;;4.20;99.90;;;;;;5055549;28;20749;-66
2022/01/27 03:48:43;;;;;;;0.10;0.10;;;4.20;99.90;;;;;;5048187;28;20721;-66
2022/01/27 03:51:11;;;;;;;0.10;0.10;;;4.20;99.90;;;;;;5055552;28;20620;-66
2022/01/27 03:53:37;;;;;;;0.10;0.10;;;4.20;99.90;;;;;;5044149;28;20717;-65
2022/01/27 03:56:05;;;;;;;0.10;0.10;;;4.20;99.90;;;;;;5045860;28;20655;-66
2022/01/27 03:58:33;;;;;;;0.10;0.10;;;4.20;99.90;;;;;;5045132;28;20714;-67
2022/01/27 04:01:01;;;;;;;0.10;0.10;;;4.20;99.90;;;;;;5051833;28;20627;-66
2022/01/27 04:03:31;;;;;;;0.10;0.10;;;4.20;99.90;;;;;;5051470;28;20634;-67
2022/01/27 04:06:05;;;;;;;0.10;0.10;;;4.20;99.90;;;;;;5054712;28;20671;-66
2022/01/27 04:08:32;;;;;;;0.10;0.10;;;4.30;99.90;;;;;;5054575;28;20727;-65
2022/01/27 04:10:59;;;;;;;0.10;0.10;;;4.20;99.90;;;;;;5059528;28;20609;-66
2022/01/27 04:13:26;;;;;;;0.10;0.10;;;4.30;99.90;;;;;;5059714;28;20630;-66
2022/01/27 04:15:53;;;;;;;0.10;0.10;;;4.30;99.90;;;;;;5053844;28;20630;-66
2022/01/27 04:18:20;;;;;;;0.10;0.10;;;4.20;99.90;;;;;;5053340;28;20636;-66
2022/01/27 04:20:48;;;;;;;0.10;0.10;;;4.20;99.90;;;;;;5055317;28;20738;-66
2022/01/27 04:23:17;;;;;;;0.10;0.10;;;4.20;99.90;;;;;;5051101;28;20621;-66
2022/01/27 04:25:44;;;;;;;0.10;0.10;;;4.20;99.90;;;;;;5055940;28;20637;-67
2022/01/27 04:28:15;;;;;;;0.10;0.10;;;4.30;99.90;;;;;;5059693;28;20652;-65
2022/01/27 04:30:42;;;;;;;0.00;0.00;;;4.30;99.90;;;;;;5052989;28;20649;-65
2022/01/27 04:33:09;;;;;;;0.10;0.10;;;4.30;99.90;;;;;;5055237;28;20626;-65
2022/01/27 04:35:40;;;;;;;0.10;0.10;;;4.30;99.90;;;;;;5065874;28;20629;-66
2022/01/27 04:38:21;;;;;;;0.10;0.10;;;4.20;99.90;;;;;;5059876;28;20631;-66
2022/01/27 04:40:56;;;;;;;0.10;0.10;;;4.20;99.90;;;;;;5057165;28;20629;-66
2022/01/27 04:43:30;;;;;;;0.10;0.10;;;4.20;99.90;;;;;;5057725;28;20621;-66
2022/01/27 04:46:05;;;;;;;0.10;0.10;;;4.20;99.90;;;;;;5061111;28;20656;-66
2022/01/27 04:48:37;;;;;;;0.10;0.10;;;4.20;99.90;;;;;;5056558;28;20869;-66
2022/01/27 04:51:07;;;;;;;0.10;0.10;;;4.20;99.90;;;;;;5071093;28;20613;-66
2022/01/27 04:53:39;;;;;;;0.10;0.10;;;4.20;99.90;;;;;;5054284;28;20680;-66
2022/01/27 04:56:10;;;;;;;0.10;0.10;;;4.20;99.90;;;;;;5077666;28;20747;-66
2022/01/27 04:58:37;;;;;;;0.10;0.10;;;4.20;99.90;;;;;;5048099;28;20684;-65
2022/01/27 05:01:05;;;;;;;0.10;0.10;;;4.20;99.90;;;;;;5055458;28;20640;-66
2022/01/27 05:03:39;;;;;;;0.10;0.10;;;4.20;99.90;;;;;;5053755;28;20622;-66
2022/01/27 05:06:06;;;;;;;0.10;0.10;;;4.20;99.90;;;;;;5055701;28;20648;-67
2022/01/27 05:08:35;;;;;;;0.10;0.10;;;4.20;99.90;;;;;;5061112;28;20630;-65
2022/01/27 05:11:07;;;;;;;0.10;0.10;;;4.20;99.90;;;;;;5052571;28;20631;-66
2022/01/27 05:13:40;;;;;;;0.10;0.10;;;4.20;99.90;;;;;;5053416;28;20630;-65
2022/01/27 05:16:07;;;;;;;0.10;0.10;;;4.20;99.90;;;;;;5059632;28;21108;-66
2022/01/27 05:18:34;;;;;;;0.10;0.10;;;4.20;99.90;;;;;;5046727;28;20646;-66
2022/01/27 05:21:01;;;;;;;0.10;0.10;;;4.20;99.90;;;;;;5053809;28;20616;-66
2022/01/27 05:23:28;;;;;;;0.10;0.10;;;4.20;99.90;;;;;;5056996;28;20632;-67
2022/01/27 05:25:57;;;;;;;0.13;0.13;;;4.20;99.90;;;;;;5052393;28;20623;-66
2022/01/27 05:28:24;;;;;;;0.10;0.10;;;4.20;99.90;;;;;;5048806;28;20628;-66
2022/01/27 05:30:51;;;;;;;0.10;0.10;;;4.20;99.90;;;;;;5044979;28;20623;-66
2022/01/27 05:33:18;;;;;;;0.10;0.10;;;4.20;99.90;;;;;;5053500;28;20655;-67
2022/01/27 05:35:45;;;;;;;0.10;0.10;;;4.20;99.90;;;;;;5054921;28;20624;-66
2022/01/27 05:38:14;;;;;;;0.10;0.10;;;4.20;99.90;;;;;;5051965;28;20628;-65
2022/01/27 05:40:41;;;;;;;0.10;0.10;;;4.20;99.90;;;;;;5065685;28;20649;-66
2022/01/27 05:43:10;;;;;;;0.10;0.10;;;4.20;99.90;;;;;;5061246;28;20616;-66
2022/01/27 05:45:38;;;;;;;0.10;0.10;;;4.20;99.90;;;;;;5052698;28;20674;-65
2022/01/27 05:48:05;;;;;;;0.10;0.10;;;4.10;99.90;;;;;;5058072;28;20688;-66
2022/01/27 05:50:33;;;;;;;0.10;0.10;;;4.10;99.90;;;;;;5048670;28;20650;-66
2022/01/27 05:53:00;;;;;;;0.10;0.10;;;4.10;99.90;;;;;;5050959;28;20620;-65
2022/01/27 05:55:27;;;;;;;0.10;0.10;;;4.10;99.90;;;;;;5045003;28;20629;-66
2022/01/27 05:57:54;;;;;;;0.10;0.10;;;4.10;99.90;;;;;;5042027;28;20658;-67
2022/01/27 06:00:22;;;;;;;0.10;0.10;;;4.10;99.90;;;;;;5056170;28;20660;-66
2022/01/27 06:02:50;;;;;;;0.10;0.10;;;4.10;99.90;;;;;;5052677;28;20614;-66
2022/01/27 06:05:18;;;;;;;0.10;0.10;;;4.10;99.90;;;;;;5044122;28;20708;-66
2022/01/27 06:07:45;;;;;;;0.10;0.10;;;4.00;99.90;;;;;;5043856;28;20692;-66
2022/01/27 06:10:12;;;;;;;0.10;0.10;;;4.00;99.90;;;;;;5047985;28;20617;-68
2022/01/27 06:12:51;;;;;;;0.10;0.10;;;4.00;99.90;;;;;;5052261;28;20629;-66
2022/01/27 06:15:18;;;;;;;0.10;0.10;;;4.00;99.90;;;;;;5049532;28;21071;-66
2022/01/27 06:17:47;;;;;;;0.10;0.10;;;3.90;99.90;;;;;;5050868;28;20653;-66
2022/01/27 06:20:15;;;;;;;0.10;0.10;;;3.90;99.90;;;;;;5052377;28;20668;-66
2022/01/27 06:22:42;;;;;;;0.10;0.10;;;3.90;99.90;;;;;;5058294;28;20651;-66
2022/01/27 06:25:11;;;;;;;0.10;0.10;;;3.90;99.90;;;;;;5057253;28;20656;-67
2022/01/27 06:27:38;;;;;;;0.10;0.10;;;3.90;99.90;;;;;;5072503;28;20640;-66
2022/01/27 06:30:07;;;;;;;0.10;0.10;;;3.90;99.90;;;;;;5050198;28;20608;-66
2022/01/27 06:32:35;;;;;;;0.10;0.10;;;3.90;99.90;;;;;;5064812;28;20625;-66
2022/01/27 06:35:04;;;;;;;0.10;0.10;;;3.90;99.90;;;;;;5059613;28;20634;-67
2022/01/27 06:37:32;;;;;;;0.10;0.10;;;3.90;99.90;;;;;;5052044;28;20661;-66
2022/01/27 06:39:59;;;;;;;0.10;0.10;;;3.80;99.90;;;;;;5051763;28;20754;-66
2022/01/27 06:42:26;;;;;;;0.10;0.10;;;3.80;99.90;;;;;;5058119;28;20622;-66
2022/01/27 06:44:54;;;;;;;0.10;0.10;;;3.80;99.90;;;;;;5060537;28;20636;-67
2022/01/27 06:47:21;;;;;;;0.10;0.10;;;3.80;99.90;;;;;;5052504;28;20675;-66
2022/01/27 06:49:48;;;;;;;0.10;0.10;;;3.80;99.90;;;;;;5059464;28;20602;-66
2022/01/27 06:52:19;;;;;;;0.17;0.17;;;3.80;99.90;;;;;;5053965;28;20981;-65
2022/01/27 06:54:48;;;;;;;0.10;0.10;;;3.90;99.90;;;;;;5047014;28;20776;-67
2022/01/27 06:57:15;;;;;;;0.10;0.10;;;3.80;99.90;;;;;;5055590;28;20642;-66
2022/01/27 06:59:42;;;;;;;0.20;0.20;;;3.90;99.90;;;;;;5051766;28;20657;-66
2022/01/27 07:02:09;;;;;;;0.10;0.10;;;3.90;99.90;;;;;;5055971;28;20616;-66
2022/01/27 07:04:37;;;;;;;0.10;0.10;;;3.90;99.90;;;;;;5049565;28;20621;-66
2022/01/27 07:07:04;;;;;;;0.10;0.10;;;3.90;99.90;;;;;;5057761;28;20667;-66
2022/01/27 07:09:33;;;;;;;0.17;0.17;;;3.90;99.90;;;;;;5050506;28;20621;-66
2022/01/27 07:12:00;;;;;;;0.10;0.10;;;3.90;99.90;;;;;;5059440;28;20662;-66
2022/01/27 07:14:26;;;;;;;0.10;0.10;;;3.90;99.90;;;;;;5059520;28;20621;-66
2022/01/27 07:16:56;;;;;;;0.10;0.10;;;3.90;99.90;;;;;;5053116;28;20662;-67
2022/01/27 07:19:23;;;;;;;0.10;0.10;;;3.90;99.90;;;;;;5058157;28;20656;-66
2022/01/27 07:21:50;;;;;;;0.10;0.10;;;3.90;99.90;;;;;;5051322;28;20613;-66
2022/01/27 07:24:17;;;;;;;0.10;0.10;;;4.00;99.90;;;;;;5055595;28;20622;-67
2022/01/27 07:26:46;;;;;;;0.10;0.10;;;4.00;99.90;;;;;;5051841;28;20652;-66
2022/01/27 07:29:14;;;;;;;0.00;0.00;;;4.00;99.90;;;;;;5045549;28;20626;-67
2022/01/27 07:31:41;;;;;;;0.10;0.10;;;4.00;99.90;;;;;;5049173;28;21177;-66
2022/01/27 07:34:08;;;;;;;0.10;0.10;;;4.00;99.90;;;;;;5048195;28;20629;-66
2022/01/27 07:36:35;;;;;;;0.10;0.10;;;4.00;99.90;;;;;;5049721;28;20744;-66
2022/01/27 07:39:02;;;;;;;0.10;0.10;;;4.10;99.90;;;;;;5059734;28;20597;-67
2022/01/27 07:41:29;;;;;;;0.10;0.10;;;4.10;99.90;;;;;;5060630;28;20631;-66
2022/01/27 07:43:58;;;;;;;0.10;0.10;;;4.10;99.90;;;;;;5078152;28;20637;-67
2022/01/27 07:46:25;;;;;;;0.10;0.10;;;4.10;99.90;;;;;;5053258;28;20654;-67
2022/01/27 07:48:52;;;;;;;0.10;0.10;;;4.10;99.90;;;;;;5046672;28;20633;-66
2022/01/27 07:51:20;;;;;;;0.10;0.10;;;4.10;99.90;;;;;;5053982;28;20670;-67
2022/01/27 07:53:46;;;;;;;0.10;0.10;;;4.10;99.90;;;;;;5054335;28;20641;-66
2022/01/27 07:56:13;;;;;;;0.10;0.10;;;4.10;99.90;;;;;;5054639;28;20656;-66
2022/01/27 07:58:43;;;;;;;0.10;0.10;;;4.10;99.90;;;;;;5056029;28;20713;-66
2022/01/27 08:01:12;;;;;;;0.10;0.10;;;4.10;99.90;;;;;;5051620;28;20754;-67
2022/01/27 08:03:39;;;;;;;0.10;0.10;;;4.10;99.90;;;;;;5053160;28;20628;-66
2022/01/27 08:06:08;;;;;;;0.10;0.10;;;4.10;99.90;;;;;;5056506;28;20660;-68
2022/01/27 08:08:35;;;;;;;0.10;0.10;;;4.10;99.90;;;;;;5056864;28;20719;-68
2022/01/27 08:11:04;;;;;;;0.10;0.10;;;4.10;99.90;;;;;;5052907;28;20628;-67
2022/01/27 08:13:33;;;;;;;0.10;0.10;;;4.10;99.90;;;;;;5056678;28;20645;-66
2022/01/27 08:16:02;;;;;;;0.10;0.10;;;4.10;99.90;;;;;;5059836;28;20663;-66
2022/01/27 08:18:32;;;;;;;0.10;0.10;;;4.10;99.90;;;;;;5060567;28;20628;-66
2022/01/27 08:21:00;;;;;;;0.10;0.10;;;4.10;99.90;;;;;;5047466;28;20739;-67
2022/01/27 08:23:28;;;;;;;0.10;0.10;;;4.20;99.90;;;;;;5052294;28;20646;-67
2022/01/27 08:26:04;;;;;;;0.10;0.10;;;4.20;99.90;;;;;;5055722;28;20622;-67
2022/01/27 08:28:41;;;;;;;0.10;0.10;;;4.20;99.90;;;;;;5045168;28;20617;-67
2022/01/27 08:31:09;;;;;;;0.10;0.10;;;4.20;99.90;;;;;;5053502;28;20674;-67
2022/01/27 08:33:39;;;;;;;0.10;0.10;;;4.20;99.90;;;;;;5051232;28;20629;-67
2022/01/27 08:36:08;;;;;;;0.10;0.10;;;4.20;99.90;;;;;;5057722;28;20632;-66
2022/01/27 08:38:36;;;;;;;0.10;0.10;;;4.20;99.90;;;;;;5052641;28;20716;-67
2022/01/27 08:41:04;;;;;;;0.10;0.10;;;4.30;99.90;;;;;;5054311;28;20755;-67
2022/01/27 08:43:31;;;;;;;0.10;0.10;;;4.30;99.90;;;;;;5063978;28;20608;-68
2022/01/27 08:46:01;;;;;;;0.10;0.10;;;4.30;99.90;;;;;;5064647;28;20664;-68
2022/01/27 08:48:28;;;;;;;0.10;0.10;;;4.30;99.90;;;;;;5059969;28;20671;-66
2022/01/27 08:51:00;;;;;;;0.10;0.10;;;4.30;99.90;;;;;;5059506;28;20702;-66
2022/01/27 08:53:28;;;;;;;0.10;0.10;;;4.40;99.90;;;;;;5060429;28;20632;-66
2022/01/27 08:55:55;;;;;;;0.10;0.10;;;4.40;99.90;;;;;;5061019;28;20760;-67
2022/01/27 08:58:25;;;;;;;0.10;0.10;;;4.40;99.90;;;;;;5060491;28;20676;-66
2022/01/27 09:00:52;;;;;;;0.10;0.10;;;4.40;99.90;;;;;;5057562;28;20649;-66
2022/01/27 09:03:20;;;;;;;0.10;0.10;;;4.50;99.90;;;;;;5075557;28;20626;-67
2022/01/27 09:05:47;;;;;;;0.10;0.10;;;4.50;99.90;;;;;;5053178;28;20622;-66
2022/01/27 09:08:16;;;;;;;0.10;0.10;;;4.50;99.90;;;;;;5049997;28;20648;-66
2022/01/27 09:10:45;;;;;;;0.10;0.10;;;4.50;99.90;;;;;;5050153;28;20643;-67
2022/01/27 09:13:12;;;;;;;0.10;0.10;;;4.50;99.90;;;;;;5055501;28;20625;-68
2022/01/27 09:15:39;;;;;;;0.10;0.10;;;4.50;99.90;;;;;;5059258;28;20637;-67
2022/01/27 09:18:06;;;;;;;0.10;0.10;;;4.50;99.90;;;;;;5056917;28;20649;-67
2022/01/27 09:20:33;;;;;;;0.10;0.10;;;4.50;99.90;;;;;;5052950;28;20744;-67
2022/01/27 09:23:02;;;;;;;0.10;0.10;;;4.60;99.90;;;;;;5058860;28;20715;-66
2022/01/27 09:25:41;;;;;;;0.10;0.10;;;4.60;99.90;;;;;;5054928;28;20694;-67
2022/01/27 09:28:08;;;;;;;0.10;0.10;;;4.60;99.90;;;;;;5049505;28;20643;-67
2022/01/27 09:30:35;;;;;;;0.10;0.10;;;4.70;99.90;;;;;;5056488;28;20652;-66
2022/01/27 09:33:02;;;;;;;0.10;0.10;;;4.80;99.90;;;;;;5060371;28;20642;-67
2022/01/27 09:35:30;;;;;;;0.10;0.10;;;4.90;99.90;;;;;;5059390;28;20617;-67
2022/01/27 09:37:57;;;;;;;0.10;0.10;;;5.00;99.90;;;;;;5052680;28;20671;-66
2022/01/27 09:40:25;;;;;;;0.10;0.10;;;5.00;99.90;;;;;;5051750;28;20657;-66
2022/01/27 09:42:55;;;;;;;0.10;0.10;;;5.00;99.90;;;;;;5063280;28;20652;-65
2022/01/27 09:45:24;;;;;;;0.10;0.10;;;5.10;99.90;;;;;;5056389;28;20671;-66
2022/01/27 09:47:55;;;;;;;0.10;0.10;;;5.10;99.90;;;;;;5051435;28;20668;-67
2022/01/27 09:50:30;;;;;;;0.10;0.10;;;5.20;99.90;;;;;;5051390;28;20631;-67
2022/01/27 09:52:57;;;;;;;0.10;0.10;;;5.20;99.90;;;;;;5059356;28;20709;-67
2022/01/27 09:55:24;;;;;;;0.10;0.10;;;5.20;99.90;;;;;;5065674;28;20601;-67
2022/01/27 09:57:55;;;;;;;0.10;0.10;;;5.30;99.90;;;;;;5060812;28;20666;-67
2022/01/27 10:00:23;;;;;;;0.10;0.10;;;5.30;99.90;;;;;;5056548;28;20736;-66
2022/01/27 10:03:17;;;;;;;0.10;0.10;;;5.30;99.90;;;;;;5053124;28;20594;-66
2022/01/27 10:05:46;;;;;;;0.10;0.10;;;5.30;99.90;;;;;;5054000;28;20705;-66
2022/01/27 10:08:17;;;;;;;0.10;0.10;;;5.30;99.90;;;;;;5051092;28;20633;-67
2022/01/27 10:10:46;;;;;;;0.10;0.10;;;5.40;99.90;;;;;;5050008;28;20605;-68
2022/01/27 10:13:32;;;;;;;0.10;0.10;;;5.40;99.90;;;;;;5054992;28;20637;-67
2022/01/27 10:16:01;;;;;;;0.10;0.10;;;5.40;99.90;;;;;;5054747;28;20622;-67
2022/01/27 10:18:34;;;;;;;0.10;0.10;;;5.40;99.90;;;;;;5053006;28;20636;-67
2022/01/27 10:21:04;;;;;;;0.10;0.10;;;5.40;99.90;;;;;;5055873;28;20685;-67
2022/01/27 10:23:36;;;;;;;0.10;0.10;;;5.50;99.90;;;;;;5052166;28;20653;-67
2022/01/27 10:26:12;;;;;;;0.10;0.10;;;5.50;99.90;;;;;;5058257;28;20653;-68
2022/01/27 10:28:46;;;;;;;0.10;0.10;;;5.60;99.90;;;;;;5051033;28;20626;-67
2022/01/27 10:31:19;;;;;;;0.10;0.10;;;5.60;99.90;;;;;;5048174;28;21297;-66
2022/01/27 10:33:52;;;;;;;0.10;0.10;;;5.60;99.90;;;;;;5052257;28;20661;-67
2022/01/27 10:36:24;;;;;;;0.10;0.10;;;5.60;99.90;;;;;;5050805;28;20665;-68
2022/01/27 10:38:53;;;;;;;0.10;0.10;;;5.60;99.90;;;;;;5059873;28;20630;-68
2022/01/27 10:41:21;;;;;;;0.10;0.10;;;5.70;99.90;;;;;;5059503;28;20649;-66
2022/01/27 10:43:52;;;;;;;0.10;0.10;;;5.80;99.90;;;;;;5055275;28;20629;-67
2022/01/27 10:46:25;;;;;;;0.10;0.10;;;5.80;99.90;;;;;;5043597;28;20641;-68
2022/01/27 10:48:59;;;;;;;0.10;0.10;;;5.80;99.90;;;;;;5049841;28;20641;-67
2022/01/27 10:51:30;;;;;;;0.10;0.10;;;5.80;99.90;;;;;;5058879;28;20640;-66
2022/01/27 10:54:04;;;;;;;0.10;0.10;;;5.80;99.90;;;;;;5051213;28;20657;-66
2022/01/27 10:56:34;;;;;;;0.10;0.10;;;5.80;99.90;;;;;;5065098;28;20704;-68
2022/01/27 10:59:05;;;;;;;0.10;0.10;;;6.00;99.90;;;;;;5063139;28;20616;-67
2022/01/27 11:01:37;;;;;;;0.00;0.00;;;6.10;99.90;;;;;;5055520;28;20664;-67
2022/01/27 11:04:07;;;;;;;0.10;0.10;;;6.30;99.90;;;;;;5060228;28;20620;-67
2022/01/27 11:06:35;;;;;;;0.10;0.10;;;6.30;99.90;;;;;;5056010;28;20649;-66
2022/01/27 11:09:08;;;;;;;0.10;0.10;;;6.30;99.90;;;;;;5058696;28;20656;-67
2022/01/27 11:11:42;;;;;;;0.10;0.10;;;6.30;99.90;;;;;;5059283;28;20627;-68
2022/01/27 11:14:11;;;;;;;0.10;0.10;;;6.30;99.90;;;;;;5053118;28;20620;-67
2022/01/27 11:16:41;;;;;;;0.10;0.10;;;6.20;99.90;;;;;;5057414;28;20649;-67
2022/01/27 11:19:20;;;;;;;0.10;0.10;;;6.20;99.90;;;;;;5062238;28;20617;-67
2022/01/27 11:21:56;;;;;;;0.00;0.00;;;6.10;99.90;;;;;;5054762;28;20662;-66
2022/01/27 11:24:31;;;;;;;0.10;0.10;;;6.10;99.90;;;;;;5048872;28;20643;-67
2022/01/27 11:27:02;;;;;;;0.10;0.10;;;6.00;99.90;;;;;;5053284;28;20654;-67
2022/01/27 11:29:31;;;;;;;0.10;0.10;;;6.00;99.90;;;;;;5055149;28;20680;-67
2022/01/27 11:32:13;;;;;;;0.10;0.10;;;6.00;99.90;;;;;;5046280;28;20617;-66
2022/01/27 11:34:52;;;;;;;0.10;0.10;;;6.00;99.90;;;;;;5049908;28;20617;-66
2022/01/27 11:37:31;;;;;;;0.10;0.10;;;6.00;99.90;;;;;;5051719;28;20744;-65
2022/01/27 11:40:04;;;;;;;0.10;0.10;;;6.00;99.90;;;;;;5058969;28;20605;-67
2022/01/27 11:42:45;;;;;;;0.10;0.10;;;6.10;99.90;;;;;;5053805;28;20668;-67
2022/01/27 11:45:33;;;;;;;0.10;0.10;;;6.10;99.90;;;;;;5057213;28;20606;-66
2022/01/27 11:48:07;;;;;;;0.10;0.10;;;6.20;99.90;;;;;;5049197;28;20661;-67
2022/01/27 11:50:38;;;;;;;0.10;0.10;;;6.20;99.90;;;;;;5051094;28;20606;-66
2022/01/27 11:53:07;;;;;;;0.10;0.10;;;6.40;99.90;;;;;;5059853;28;20641;-67
2022/01/27 11:55:46;;;;;;;0.10;0.10;;;6.40;99.90;;;;;;5049935;28;20620;-67
2022/01/27 11:58:19;;;;;;;0.10;0.10;;;6.40;99.90;;;;;;5047321;28;21377;-67
2022/01/27 12:01:21;;;;;;;0.10;0.10;;;6.40;99.90;;;;;;5060184;28;20645;-67
2022/01/27 12:04:12;;;;;;;0.10;0.10;;;6.50;99.90;;;;;;5053434;28;20617;-65
2022/01/27 12:06:41;;;;;;;0.00;0.00;;;6.40;99.90;;;;;;5041474;28;20658;-67
2022/01/27 12:09:28;;;;;;;0.10;0.10;;;6.40;99.90;;;;;;5049421;28;20625;-66
2022/01/27 12:11:58;;;;;;;0.10;0.10;;;6.40;99.90;;;;;;5050487;28;20737;-67
2022/01/27 12:14:29;;;;;;;0.00;0.00;;;6.40;99.90;;;;;;5053366;28;20628;-67
2022/01/27 12:17:23;;;;;;;0.10;0.10;;;6.40;99.90;;;;;;5045783;28;20735;-67
2022/01/27 12:19:55;;;;;;;0.03;0.03;;;6.40;99.90;;;;;;5054130;28;20605;-66
2022/01/27 12:22:24;;;;;;;0.10;0.10;;;6.30;99.90;;;;;;5052063;28;20661;-67
2022/01/27 12:24:53;;;;;;;0.10;0.10;;;6.20;99.90;;;;;;5046551;28;20628;-67
2022/01/27 12:27:21;;;;;;;0.10;0.10;;;6.20;99.90;;;;;;5053731;28;20655;-67
2022/01/27 12:29:50;;;;;;;0.10;0.10;;;6.20;99.90;;;;;;5051906;28;20628;-67
2022/01/27 12:32:22;;;;;;;0.10;0.10;;;6.10;99.90;;;;;;5047771;28;20598;-66
2022/01/27 12:34:52;;;;;;;0.10;0.10;;;6.10;99.90;;;;;;5048366;28;21190;-67
2022/01/27 12:37:23;;;;;;;0.10;0.10;;;6.00;99.90;;;;;;5060279;28;20667;-66
2022/01/27 12:39:53;;;;;;;0.00;0.00;;;6.00;99.90;;;;;;5060530;28;20717;-67
2022/01/27 12:42:23;;;;;;;0.00;0.00;;;6.00;99.90;;;;;;5049922;28;20659;-67
2022/01/27 12:44:55;;;;;;;0.10;0.10;;;5.90;99.90;;;;;;5056084;28;20621;-67
2022/01/27 12:47:23;;;;;;;0.10;0.10;;;5.90;99.90;;;;;;5045221;28;20652;-68
2022/01/27 12:50:02;;;;;;;0.10;0.10;;;5.90;99.90;;;;;;5058725;28;20692;-67
2022/01/27 12:52:32;;;;;;;0.10;0.10;;;5.90;99.90;;;;;;5050667;28;20621;-67
2022/01/27 12:54:59;;;;;;;0.00;0.00;;;5.90;99.90;;;;;;5055797;28;20632;-67
2022/01/27 12:57:28;;;;;;;0.10;0.10;;;5.90;99.90;;;;;;5052357;28;20749;-67
2022/01/27 12:59:57;;;;;;;0.10;0.10;;;5.90;99.90;;;;;;5057030;28;20653;-67
2022/01/27 13:02:26;;;;;;;0.10;0.10;;;6.00;99.90;;;;;;5055653;28;20689;-67
2022/01/27 13:04:56;;;;;;;0.10;0.10;;;6.00;99.90;;;;;;5057337;28;20691;-67
2022/01/27 13:07:25;;;;;;;0.07;0.07;;;6.10;99.90;;;;;;5052164;28;20691;-67
2022/01/27 13:09:59;;;;;;;0.10;0.10;;;6.10;99.90;;;;;;5051024;28;20622;-68
2022/01/27 13:12:31;;;;;;;0.00;0.00;;;6.20;99.90;;;;;;5041717;28;20675;-68
2022/01/27 13:15:07;;;;;;;0.10;0.10;;;6.20;99.90;;;;;;5050036;28;21218;-68
2022/01/27 13:17:41;;;;;;;0.10;0.10;;;6.20;99.90;;;;;;5060922;28;20705;-67
2022/01/27 13:20:19;;;;;;;0.10;0.10;;;6.40;99.90;;;;;;5061242;28;20658;-67
2022/01/27 13:22:48;;;;;;;0.10;0.10;;;6.40;99.90;;;;;;5060398;28;20664;-67
2022/01/27 13:25:15;;;;;;;0.10;0.10;;;6.40;99.90;;;;;;5052060;28;20625;-67
2022/01/27 13:27:43;;;;;;;0.10;0.10;;;6.40;99.90;;;;;;5049261;28;20657;-68
2022/01/27 13:30:11;;;;;;;0.10;0.10;;;6.40;99.90;;;;;;5046380;28;20661;-68
2022/01/27 13:32:40;;;;;;;0.10;0.10;;;6.30;99.90;;;;;;5057625;28;20617;-66
2022/01/27 13:35:09;;;;;;;0.10;0.10;;;6.30;99.90;;;;;;5053295;28;20699;-67